Time;durP1;ratioP1;P1;durP2;ratioP2;P2;SDS_P1;SDS_P2;PMS_P1;PMS_P2;Temp;Humidity;BMP_temperature;BMP_pressure;BME280_temperature;BME280_humidity;BME280_pressure;Samples;Min_cycle;Max_cycle;Signal;HPM_P1;HPM_P2
2021/12/30 00:00:06;;;;;;;10.07;1.87;;;;;;;20.61;57.03;98752.09;7314224;19;155215;-39
2021/12/30 00:02:32;;;;;;;14.48;2.60;;;;;;;20.73;57.50;98756.94;7312650;19;128923;-37
2021/12/30 00:04:58;;;;;;;16.40;2.78;;;;;;;20.64;56.92;98754.44;7312488;19;133134;-35
2021/12/30 00:07:23;;;;;;;13.45;2.55;;;;;;;20.62;57.53;98761.59;7312358;19;130376;-41
2021/12/30 00:09:49;;;;;;;9.90;1.98;;;;;;;20.72;57.04;98775.38;7313597;19;129147;-36
2021/12/30 00:12:14;;;;;;;13.93;2.43;;;;;;;20.53;57.33;98762.50;7312909;19;153222;-37
2021/12/30 00:14:40;;;;;;;12.73;2.50;;;;;;;20.64;56.91;98777.94;7311908;19;158519;-35
2021/12/30 00:17:05;;;;;;;29.77;4.70;;;;;;;20.77;57.21;98786.19;7311232;19;129883;-39
2021/12/30 00:19:30;;;;;;;9.13;2.17;;;;;;;20.64;57.08;98770.09;7305281;19;155106;-36
2021/12/30 00:21:55;;;;;;;11.82;2.22;;;;;;;20.62;57.03;98761.59;7312014;19;128990;-38
2021/12/30 00:24:21;;;;;;;14.40;2.37;;;;;;;20.61;57.00;98773.00;7311052;19;159151;-38
2021/12/30 00:26:46;;;;;;;8.48;2.03;;;;;;;20.60;57.20;98755.69;7311164;19;129082;-38
2021/12/30 00:29:11;;;;;;;17.00;3.00;;;;;;;20.59;57.48;98756.69;7308180;19;154524;-34
2021/12/30 00:31:36;;;;;;;14.70;2.90;;;;;;;20.67;57.16;98775.84;7310952;19;154572;-35
2021/12/30 00:34:02;;;;;;;22.87;4.50;;;;;;;20.67;57.32;98780.25;7310830;19;158183;-37
2021/12/30 00:36:27;;;;;;;15.57;3.03;;;;;;;20.55;57.61;98771.84;7312246;19;129649;-38
2021/12/30 00:38:53;;;;;;;12.05;2.22;;;;;;;20.38;58.11;98772.69;7311143;19;129046;-36
2021/12/30 00:41:19;;;;;;;13.55;2.38;;;;;;;20.31;57.87;98778.66;7311437;19;129085;-34
2021/12/30 00:43:45;;;;;;;10.85;2.30;;;;;;;20.39;57.68;98773.50;7312633;19;131050;-35
2021/12/30 00:46:11;;;;;;;13.30;2.60;;;;;;;20.50;57.64;98768.03;7311862;19;130495;-31
2021/12/30 00:48:37;;;;;;;21.13;3.67;;;;;;;20.64;57.54;98770.09;7309581;19;128945;-35
2021/12/30 00:51:03;;;;;;;18.33;2.85;;;;;;;20.79;56.80;98768.56;7312577;19;129000;-34
2021/12/30 00:53:28;;;;;;;12.90;2.42;;;;;;;20.82;56.18;98747.34;7311803;19;132739;-36
2021/12/30 00:55:53;;;;;;;13.67;2.53;;;;;;;21.01;55.86;98757.59;7309796;19;158601;-34
2021/12/30 00:58:19;;;;;;;14.05;2.47;;;;;;;21.10;56.05;98766.31;7310137;19;130143;-32
2021/12/30 01:00:46;;;;;;;16.75;2.75;;;;;;;21.22;55.66;98755.41;7312129;19;129304;-32
2021/12/30 01:03:13;;;;;;;17.70;3.17;;;;;;;21.35;55.47;98761.03;7309826;19;129695;-38
2021/12/30 01:05:38;;;;;;;15.27;2.72;;;;;;;21.36;54.77;98767.06;7311076;19;130408;-35
2021/12/30 01:08:08;;;;;;;17.92;2.72;;;;;;;21.33;54.99;98772.59;7305841;19;128950;-35
2021/12/30 01:10:34;;;;;;;15.27;2.63;;;;;;;21.30;55.02;98767.69;7310685;19;129660;-36
2021/12/30 01:13:05;;;;;;;14.02;2.10;;;;;;;21.29;55.46;98766.88;7311336;19;132370;-37
2021/12/30 01:15:45;;;;;;;13.32;2.58;;;;;;;21.16;55.82;98769.09;7309635;19;129543;-42
2021/12/30 01:18:36;;;;;;;18.05;2.70;;;;;;;21.19;56.07;98784.47;7309120;19;129424;-37
2021/12/30 01:21:02;;;;;;;10.15;1.83;;;;;;;21.14;56.36;98793.78;7310913;19;128923;-32
2021/12/30 01:23:28;;;;;;;17.88;3.15;;;;;;;21.14;56.33;98794.56;7308396;19;130489;-34
2021/12/30 01:25:55;;;;;;;7.47;2.20;;;;;;;21.09;56.42;98791.59;7310454;19;129833;-37
2021/12/30 01:28:21;;;;;;;6.60;1.48;;;;;;;21.05;55.90;98798.13;7309816;19;128990;-35
2021/12/30 01:30:47;;;;;;;16.65;3.08;;;;;;;20.98;56.39;98799.72;7310765;19;129079;-38
2021/12/30 01:33:13;;;;;;;13.65;2.50;;;;;;;21.01;56.60;98793.34;7310658;19;130254;-35
2021/12/30 01:35:38;;;;;;;11.90;2.38;;;;;;;20.96;56.18;98791.19;7308960;19;158124;-41
2021/12/30 01:38:05;;;;;;;15.60;2.63;;;;;;;20.98;56.53;98793.66;7308525;19;143394;-34
2021/12/30 01:40:31;;;;;;;13.05;2.28;;;;;;;20.84;57.01;98781.97;7311105;19;130587;-42
2021/12/30 01:42:56;;;;;;;11.27;2.20;;;;;;;20.90;56.99;98786.59;7308428;19;129639;-35
2021/12/30 01:45:21;;;;;;;13.52;2.10;;;;;;;20.89;56.66;98795.38;7309683;19;129132;-36
2021/12/30 01:47:50;;;;;;;13.45;2.38;;;;;;;20.86;56.70;98787.84;7308556;19;129244;-34
2021/12/30 01:50:18;;;;;;;14.90;2.53;;;;;;;20.87;56.89;98794.75;7310696;19;129038;-33
2021/12/30 01:52:43;;;;;;;13.57;2.58;;;;;;;20.82;57.15;98804.00;7307949;19;130099;-37
2021/12/30 01:55:10;;;;;;;17.67;3.17;;;;;;;20.81;57.35;98803.16;7308776;19;129238;-33
2021/12/30 01:57:36;;;;;;;;;;;;;;;20.79;57.82;98807.75;7310526;19;129157;-34
2021/12/30 02:00:04;;;;;;;7.20;1.77;;;;;;;20.76;57.26;98805.41;7309879;19;138950;-38
2021/12/30 02:02:29;;;;;;;11.60;1.95;;;;;;;20.76;57.16;98810.66;7308750;19;131704;-36
2021/12/30 02:04:55;;;;;;;16.07;2.40;;;;;;;20.74;57.33;98817.84;7307999;19;158404;-32
2021/12/30 02:07:20;;;;;;;12.95;2.53;;;;;;;20.72;57.42;98825.00;7309194;19;129068;-31
2021/12/30 02:09:45;;;;;;;15.40;3.10;;;;;;;20.73;57.54;98821.41;7304565;19;153988;-32
2021/12/30 02:12:11;;;;;;;12.95;2.53;;;;;;;20.68;57.72;98823.66;7309120;19;128970;-40
2021/12/30 02:14:36;;;;;;;13.25;2.40;;;;;;;20.66;57.71;98820.38;7308308;19;158920;-35
2021/12/30 02:17:04;;;;;;;20.63;2.88;;;;;;;20.67;57.84;98822.03;7309292;19;129128;-38
2021/12/30 02:19:31;;;;;;;11.15;2.05;;;;;;;20.55;57.88;98804.94;7308078;19;128918;-36
2021/12/30 02:21:56;;;;;;;15.20;2.35;;;;;;;20.53;58.06;98806.88;7315627;19;129539;-31
2021/12/30 02:24:22;;;;;;;17.45;3.13;;;;;;;20.55;57.43;98807.56;7315042;19;135724;-35
2021/12/30 02:26:47;;;;;;;9.98;2.10;;;;;;;20.51;58.24;98811.47;7316402;19;129174;-37
2021/12/30 02:29:12;;;;;;;19.20;3.08;;;;;;;20.54;58.39;98811.16;7311334;19;142138;-37
2021/12/30 02:31:39;;;;;;;13.20;2.07;;;;;;;20.52;58.25;98813.94;7314891;19;158279;-36
2021/12/30 02:34:05;;;;;;;14.35;2.53;;;;;;;20.51;57.88;98819.31;7316717;19;130672;-37
2021/12/30 02:36:34;;;;;;;12.55;2.35;;;;;;;20.43;58.25;98817.44;7314637;19;129106;-39
2021/12/30 02:39:03;;;;;;;19.50;3.10;;;;;;;20.47;58.47;98823.16;7315645;19;130688;-32
2021/12/30 02:41:32;;;;;;;15.45;2.63;;;;;;;20.45;58.69;98827.72;7315965;19;130771;-32
2021/12/30 02:43:58;;;;;;;20.15;3.78;;;;;;;20.46;58.08;98824.94;7316692;19;130448;-34
2021/12/30 02:46:28;;;;;;;11.15;1.83;;;;;;;20.45;57.91;98827.72;7316911;19;129015;-33
2021/12/30 02:48:54;;;;;;;13.85;2.13;;;;;;;20.44;58.01;98826.09;7314787;19;129079;-35
2021/12/30 02:51:21;;;;;;;19.13;3.63;;;;;;;20.41;58.71;98831.63;7314495;19;130073;-34
2021/12/30 02:53:46;;;;;;;13.07;2.50;;;;;;;20.40;58.06;98843.00;7315471;19;130800;-35
2021/12/30 02:56:12;;;;;;;17.13;3.53;;;;;;;20.43;58.57;98845.31;7314306;19;128836;-34
2021/12/30 02:58:37;;;;;;;13.07;2.20;;;;;;;20.47;58.64;98846.66;7314070;19;153380;-37
2021/12/30 03:01:09;;;;;;;13.47;2.37;;;;;;;20.40;59.27;98830.78;7313017;19;159344;-33
2021/12/30 03:03:35;;;;;;;9.73;1.85;;;;;;;20.44;57.89;98831.31;7313445;19;130239;-33
2021/12/30 03:06:03;;;;;;;24.23;3.85;;;;;;;20.41;58.68;98837.63;7311788;19;130252;-39
2021/12/30 03:08:29;;;;;;;16.13;2.50;;;;;;;20.38;58.46;98837.13;7315041;19;128991;-34
2021/12/30 03:10:54;;;;;;;14.43;2.40;;;;;;;20.39;58.53;98852.66;7316350;19;129350;-36
2021/12/30 03:13:29;;;;;;;17.48;2.80;;;;;;;20.29;58.49;98843.25;7315365;19;131212;-36
2021/12/30 03:15:54;;;;;;;14.20;2.28;;;;;;;20.39;58.08;98865.72;7313889;19;129292;-33
2021/12/30 03:18:19;;;;;;;11.00;2.08;;;;;;;20.38;58.51;98866.66;7312444;19;129304;-38
2021/12/30 03:20:45;;;;;;;15.65;2.92;;;;;;;20.39;58.17;98862.28;7311922;19;159763;-33
2021/12/30 03:23:10;;;;;;;22.17;3.43;;;;;;;20.45;58.37;98870.31;7311428;19;156175;-36
2021/12/30 03:25:35;;;;;;;16.70;2.85;;;;;;;20.37;57.78;98851.16;7314219;19;129393;-34
2021/12/30 03:28:00;;;;;;;12.07;1.90;;;;;;;20.40;58.29;98866.50;7313605;19;154077;-38
2021/12/30 03:30:27;;;;;;;11.43;2.00;;;;;;;20.43;58.03;98871.44;7312261;19;158487;-40
2021/12/30 03:32:52;;;;;;;10.70;1.98;;;;;;;20.44;57.90;98888.75;7313040;19;129276;-37
2021/12/30 03:35:18;;;;;;;15.45;2.40;;;;;;;20.44;58.46;98893.97;7312714;19;154482;-33
2021/12/30 03:37:44;;;;;;;14.60;2.30;;;;;;;20.41;58.14;98907.34;7313713;19;129413;-32
2021/12/30 03:40:13;;;;;;;20.73;3.28;;;;;;;20.40;58.26;98914.34;7315077;19;129248;-34
2021/12/30 03:42:38;;;;;;;11.98;2.33;;;;;;;20.46;58.43;98925.97;7313750;19;130005;-33
2021/12/30 03:45:07;;;;;;;13.20;2.03;;;;;;;20.45;57.97;98926.94;7313519;19;129420;-32
2021/12/30 03:47:35;;;;;;;18.10;2.75;;;;;;;20.52;57.58;98933.22;7312629;19;129108;-35
2021/12/30 03:50:00;;;;;;;9.57;1.67;;;;;;;20.47;58.35;98935.44;7313538;19;131088;-36
2021/12/30 03:52:30;;;;;;;13.48;2.15;;;;;;;20.45;58.51;98938.22;7314144;19;130766;-32
2021/12/30 03:54:55;;;;;;;12.48;2.03;;;;;;;20.42;58.16;98937.69;7313176;19;130007;-33
2021/12/30 03:57:21;;;;;;;12.00;1.90;;;;;;;20.53;57.86;98940.06;7311987;19;155354;-36
2021/12/30 03:59:46;;;;;;;14.40;2.50;;;;;;;20.66;58.15;98950.97;7309110;19;155250;-32
2021/12/30 04:02:12;;;;;;;14.80;2.67;;;;;;;20.80;57.40;98947.00;7312681;19;129823;-33
2021/12/30 04:04:38;;;;;;;14.13;2.83;;;;;;;20.99;56.56;98939.03;7312038;19;136085;-39
2021/12/30 04:07:04;;;;;;;17.88;2.42;;;;;;;21.13;56.52;98954.16;7311530;19;154155;-36
2021/12/30 04:09:29;;;;;;;11.13;1.83;;;;;;;21.28;56.16;98948.25;7311772;19;129526;-40
2021/12/30 04:11:55;;;;;;;9.80;1.70;;;;;;;21.53;55.38;98947.44;7313196;19;129708;-36
2021/12/30 04:14:20;;;;;;;12.85;1.88;;;;;;;21.77;54.16;98949.38;7312341;19;134111;-34
2021/12/30 04:16:45;;;;;;;17.45;3.20;;;;;;;21.98;54.15;98968.13;7310975;19;153179;-35
2021/12/30 04:19:11;;;;;;;16.65;2.45;;;;;;;22.10;53.40;98976.53;7309101;19;158482;-36
2021/12/30 04:21:36;;;;;;;13.88;2.33;;;;;;;22.19;52.76;98970.31;7311497;19;159055;-34
2021/12/30 04:24:03;;;;;;;20.00;3.22;;;;;;;22.35;53.10;98975.59;7308328;19;154711;-37
2021/12/30 04:26:28;;;;;;;16.25;2.53;;;;;;;22.38;52.32;98976.09;7312206;19;129099;-36
2021/12/30 04:28:53;;;;;;;20.02;2.95;;;;;;;22.30;52.93;98980.50;7308972;19;129172;-32
2021/12/30 04:31:18;;;;;;;14.30;2.28;;;;;;;22.23;53.25;98982.13;7311040;19;158268;-33
2021/12/30 04:33:44;;;;;;;12.93;2.72;;;;;;;22.11;52.92;98963.28;7311429;19;154596;-38
2021/12/30 04:36:10;;;;;;;20.02;3.25;;;;;;;22.08;53.62;98983.72;7311488;19;129506;-35
2021/12/30 04:38:36;;;;;;;11.30;1.90;;;;;;;21.95;53.57;98992.81;7311438;19;131069;-35
2021/12/30 04:41:04;;;;;;;15.65;2.22;;;;;;;21.87;54.01;99003.25;7312791;19;130318;-34
2021/12/30 04:43:29;;;;;;;11.00;1.70;;;;;;;21.79;53.91;99010.22;7310088;19;128998;-35
2021/12/30 04:45:55;;;;;;;14.45;2.85;;;;;;;21.73;54.88;99010.81;7311599;19;129242;-35
2021/12/30 04:48:21;;;;;;;13.90;2.22;;;;;;;21.65;55.07;99008.94;7310703;19;130763;-35
2021/12/30 04:50:47;;;;;;;12.32;2.22;;;;;;;21.56;54.95;99028.19;7311948;19;130796;-37
2021/12/30 04:53:14;;;;;;;16.10;2.53;;;;;;;21.41;55.21;99010.59;7311801;19;129464;-36
2021/12/30 04:55:39;;;;;;;10.43;1.92;;;;;;;21.50;55.39;99020.94;7312296;19;129165;-37
2021/12/30 04:58:05;;;;;;;21.80;2.85;;;;;;;21.41;56.04;99026.28;7311376;19;129354;-33
2021/12/30 05:00:31;;;;;;;7.03;1.33;;;;;;;21.35;55.49;99017.28;7311608;19;130379;-35
2021/12/30 05:03:09;;;;;;;16.42;2.53;;;;;;;21.31;55.55;99026.38;7310121;19;128863;-36
2021/12/30 05:05:37;;;;;;;11.23;1.95;;;;;;;21.26;55.83;99043.47;7311329;19;129633;-35
2021/12/30 05:08:03;;;;;;;18.10;2.45;;;;;;;21.21;55.98;99049.16;7309872;19;129510;-31
2021/12/30 05:10:28;;;;;;;8.63;1.23;;;;;;;21.18;55.97;99057.31;7311011;19;129464;-33
2021/12/30 05:12:53;;;;;;;13.43;2.38;;;;;;;21.15;56.25;99062.84;7309700;19;128923;-35
2021/12/30 05:15:19;;;;;;;14.88;2.25;;;;;;;21.16;56.58;99055.81;7311178;19;131510;-33
2021/12/30 05:17:44;;;;;;;12.20;2.17;;;;;;;21.10;56.80;99049.41;7308110;19;158404;-34
2021/12/30 05:20:12;;;;;;;11.70;2.10;;;;;;;21.08;56.51;99061.78;7310830;19;131684;-39
2021/12/30 05:22:37;;;;;;;12.57;2.05;;;;;;;21.04;56.37;99065.66;7310218;19;129106;-33
2021/12/30 05:25:03;;;;;;;15.57;2.40;;;;;;;21.02;56.71;99078.06;7309750;19;134811;-36
2021/12/30 05:27:28;;;;;;;14.52;2.15;;;;;;;20.97;56.95;99080.31;7309938;19;130966;-36
2021/12/30 05:29:53;;;;;;;11.38;1.83;;;;;;;20.96;57.15;99072.59;7311327;19;146304;-34
2021/12/30 05:32:19;;;;;;;11.55;1.90;;;;;;;20.89;56.72;99079.38;7309599;19;156963;-32
2021/12/30 05:34:44;;;;;;;13.45;2.20;;;;;;;20.90;56.75;99078.38;7309971;19;129152;-39
2021/12/30 05:37:09;;;;;;;20.03;3.33;;;;;;;20.90;57.37;99084.44;7307380;19;158356;-34
2021/12/30 05:39:39;;;;;;;16.67;2.63;;;;;;;20.87;57.15;99089.13;7306241;19;159403;-31
2021/12/30 05:42:05;;;;;;;17.92;2.53;;;;;;;20.85;57.30;99086.69;7311684;19;129720;-37
2021/12/30 05:44:30;;;;;;;12.27;1.75;;;;;;;20.82;57.85;99086.97;7309012;19;129257;-42
2021/12/30 05:46:55;;;;;;;12.90;1.97;;;;;;;20.81;57.70;99093.16;7308930;19;159085;-34
2021/12/30 05:49:21;;;;;;;11.60;1.83;;;;;;;20.77;57.88;99089.22;7307743;19;158902;-34
2021/12/30 05:51:46;;;;;;;9.30;1.87;;;;;;;20.73;57.46;99098.28;7309067;19;154576;-32
2021/12/30 05:54:11;;;;;;;13.73;2.13;;;;;;;20.69;57.75;99076.84;7307438;19;154147;-31
2021/12/30 05:56:36;;;;;;;13.47;2.10;;;;;;;20.71;57.68;99087.16;7308992;19;158996;-39
2021/12/30 05:59:02;;;;;;;17.48;2.65;;;;;;;20.65;58.13;99088.59;7307992;19;129283;-34
2021/12/30 06:01:27;;;;;;;8.38;1.27;;;;;;;20.61;57.55;99084.59;7310240;19;154837;-36
2021/12/30 06:03:52;;;;;;;20.23;3.70;;;;;;;20.64;58.00;99104.41;7307864;19;129485;-32
2021/12/30 06:06:17;;;;;;;15.63;2.67;;;;;;;20.65;57.88;99111.25;7307749;19;158237;-34
2021/12/30 06:08:43;;;;;;;17.00;2.63;;;;;;;20.63;57.69;99097.50;7306177;19;158539;-35
2021/12/30 06:11:08;;;;;;;17.55;2.63;;;;;;;20.63;57.48;99105.34;7309318;19;154508;-37
2021/12/30 06:13:33;;;;;;;11.25;1.95;;;;;;;20.63;57.76;99098.34;7309323;19;144623;-31
2021/12/30 06:15:59;;;;;;;16.58;2.95;;;;;;;20.64;57.56;99099.19;7308342;19;158235;-32
2021/12/30 06:18:24;;;;;;;5.47;1.13;;;;;;;20.67;57.87;99098.88;7308288;19;129851;-33
2021/12/30 06:20:49;;;;;;;9.70;1.60;;;;;;;20.56;57.79;99081.59;7308986;19;154431;-37
2021/12/30 06:23:14;;;;;;;12.80;2.00;;;;;;;20.59;58.15;99096.19;7308997;19;129042;-35
2021/12/30 06:25:40;;;;;;;11.27;1.98;;;;;;;20.64;58.24;99092.16;7308113;19;159134;-33
2021/12/30 06:28:05;;;;;;;17.23;2.88;;;;;;;20.67;57.77;99104.09;7307258;19;129565;-37
2021/12/30 06:30:30;;;;;;;12.10;1.77;;;;;;;20.62;58.17;99106.34;7308634;19;154797;-40
2021/12/30 06:32:56;;;;;;;11.23;1.73;;;;;;;20.58;58.44;99108.41;7309578;19;143960;-36
2021/12/30 06:35:21;;;;;;;11.40;1.80;;;;;;;20.57;57.86;99109.38;7307461;19;157334;-31
2021/12/30 06:37:46;;;;;;;15.00;2.33;;;;;;;20.58;58.28;99100.56;7307618;19;158694;-35
2021/12/30 06:40:13;;;;;;;12.13;1.93;;;;;;;20.64;57.72;99092.16;7308219;19;154097;-38
2021/12/30 06:42:41;;;;;;;12.32;2.22;;;;;;;20.60;57.90;99096.03;7308413;19;129808;-34
2021/12/30 06:45:07;;;;;;;9.88;1.65;;;;;;;20.67;57.65;99104.09;7308770;19;130190;-37
2021/12/30 06:47:32;;;;;;;11.65;1.77;;;;;;;20.71;58.09;99108.88;7308984;19;131915;-36
2021/12/30 06:50:01;;;;;;;15.95;2.10;;;;;;;20.69;57.08;99094.34;7309961;19;129061;-35
2021/12/30 06:52:26;;;;;;;12.82;1.92;;;;;;;20.79;56.97;99121.25;7309296;19;128831;-35
2021/12/30 06:54:52;;;;;;;12.75;2.08;;;;;;;20.82;57.15;99114.88;7309441;19;129966;-34
2021/12/30 06:57:17;;;;;;;14.45;2.47;;;;;;;20.86;57.37;99116.25;7305922;19;158657;-34
2021/12/30 06:59:42;;;;;;;9.35;1.83;;;;;;;20.93;57.10;99139.03;7306036;19;128907;-36
2021/12/30 07:02:08;;;;;;;16.08;2.38;;;;;;;20.94;56.88;99139.84;7308644;19;129126;-33
2021/12/30 07:04:34;;;;;;;10.40;1.65;;;;;;;20.89;57.22;99129.81;7307324;19;157580;-34
2021/12/30 07:06:59;;;;;;;19.45;2.45;;;;;;;21.00;56.73;99142.72;7311482;19;129203;-35
2021/12/30 07:09:24;;;;;;;14.73;2.28;;;;;;;21.04;56.61;99149.28;7314536;19;129322;-34
2021/12/30 07:11:50;;;;;;;12.13;2.10;;;;;;;21.06;56.77;99144.75;7316575;19;128822;-32
2021/12/30 07:14:19;;;;;;;12.05;2.05;;;;;;;21.06;56.98;99147.34;7314584;19;130185;-34
2021/12/30 07:16:45;;;;;;;16.95;2.60;;;;;;;21.07;56.57;99138.56;7315059;19;129633;-32
2021/12/30 07:19:11;;;;;;;14.98;2.45;;;;;;;21.06;56.07;99139.53;7312336;19;130260;-33
2021/12/30 07:21:37;;;;;;;11.35;2.15;;;;;;;21.08;56.66;99150.66;7314049;19;129090;-35
2021/12/30 07:24:03;;;;;;;17.58;2.78;;;;;;;21.07;56.68;99164.72;7309896;19;129582;-30
2021/12/30 07:26:28;;;;;;;13.05;2.22;;;;;;;21.09;56.55;99178.44;7314199;19;130170;-35
2021/12/30 07:28:53;;;;;;;16.55;2.42;;;;;;;21.08;56.31;99181.19;7311748;19;154645;-34
2021/12/30 07:31:19;;;;;;;13.37;2.07;;;;;;;21.09;56.65;99177.63;7312976;19;155028;-31
2021/12/30 07:33:44;;;;;;;11.90;1.88;;;;;;;21.03;56.38;99186.88;7314925;19;129615;-37
2021/12/30 07:36:09;;;;;;;13.57;2.28;;;;;;;21.05;56.72;99179.69;7313825;19;130538;-37
2021/12/30 07:38:34;;;;;;;4.82;0.93;;;;;;;21.01;56.64;99186.19;7311686;19;154599;-35
2021/12/30 07:41:00;;;;;;;22.43;3.23;;;;;;;20.98;56.91;99191.69;7312590;19;153651;-38
2021/12/30 07:43:25;;;;;;;10.80;1.60;;;;;;;21.02;57.22;99185.22;7312967;19;130354;-36
2021/12/30 07:45:51;;;;;;;11.30;2.30;;;;;;;20.94;56.88;99179.03;7314914;19;131195;-33
2021/12/30 07:48:18;;;;;;;13.05;2.20;;;;;;;20.96;56.71;99190.97;7313655;19;129995;-33
2021/12/30 07:50:43;;;;;;;11.60;1.98;;;;;;;20.93;56.89;99200.91;7312936;19;129064;-34
2021/12/30 07:53:09;;;;;;;30.77;3.95;;;;;;;20.91;56.89;99203.66;7311116;19;129565;-36
2021/12/30 07:55:34;;;;;;;12.13;2.47;;;;;;;20.91;57.32;99208.09;7309858;19;158587;-40
2021/12/30 07:57:59;;;;;;;15.93;2.33;;;;;;;20.87;57.13;99220.63;7312634;19;140990;-33
2021/12/30 08:00:25;;;;;;;11.45;1.63;;;;;;;20.85;57.71;99221.72;7311879;19;155235;-37
2021/12/30 08:02:51;;;;;;;14.15;2.28;;;;;;;20.78;57.49;99221.47;7313008;19;130196;-34
2021/12/30 08:05:17;;;;;;;14.57;2.30;;;;;;;20.79;57.71;99225.75;7312951;19;129236;-32
2021/12/30 08:07:45;;;;;;;;;;;;;;;20.68;58.16;99215.44;7315041;19;129390;-36
2021/12/30 08:10:14;;;;;;;16.35;2.92;;;;;;;20.77;57.94;99225.06;7312406;19;129670;-35
2021/12/30 08:12:41;;;;;;;17.67;2.60;;;;;;;20.75;57.61;99221.75;7312027;19;130557;-39
2021/12/30 08:15:07;;;;;;;15.98;2.47;;;;;;;20.69;57.53;99210.06;7307789;19;129660;-38
2021/12/30 08:17:34;;;;;;;16.27;2.47;;;;;;;20.68;58.01;99216.28;7310907;19;129293;-36
2021/12/30 08:19:59;;;;;;;;;;;;;;;20.70;57.87;99208.28;7312078;19;129928;-31
2021/12/30 08:22:25;;;;;;;15.80;2.43;;;;;;;20.68;58.02;99216.28;7311386;19;132223;-38
2021/12/30 08:24:50;;;;;;;13.05;2.05;;;;;;;20.64;57.65;99219.31;7310884;19;129338;-34
2021/12/30 08:27:15;;;;;;;14.70;2.53;;;;;;;20.63;57.60;99217.66;7308738;19;155119;-35
2021/12/30 08:29:42;;;;;;;14.13;2.03;;;;;;;20.66;57.77;99220.81;7308658;19;154017;-34
2021/12/30 08:32:08;;;;;;;15.67;2.27;;;;;;;20.61;58.30;99230.03;7312876;19;129225;-32
2021/12/30 08:34:34;;;;;;;7.35;1.48;;;;;;;20.61;57.72;99230.88;7311733;19;129251;-39
2021/12/30 08:36:59;;;;;;;13.27;1.85;;;;;;;20.58;58.06;99225.09;7313086;19;129770;-32
2021/12/30 08:39:24;;;;;;;11.03;1.87;;;;;;;20.63;58.20;99230.72;7308363;19;154299;-35
2021/12/30 08:41:49;;;;;;;14.73;1.63;;;;;;;20.59;57.83;99245.03;7308666;19;154718;-35
2021/12/30 08:44:15;;;;;;;13.93;2.07;;;;;;;20.60;58.28;99242.28;7307846;19;159086;-36
2021/12/30 08:46:40;;;;;;;16.53;2.93;;;;;;;20.62;57.79;99245.59;7309836;19;154575;-36
2021/12/30 08:49:05;;;;;;;18.85;2.78;;;;;;;20.59;58.28;99251.06;7308082;19;153961;-36
2021/12/30 08:51:30;;;;;;;16.90;2.33;;;;;;;20.58;57.62;99251.22;7310956;19;158986;-43
2021/12/30 08:53:56;;;;;;;23.38;3.92;;;;;;;20.57;58.29;99249.59;7310707;19;129433;-37
2021/12/30 08:56:23;;;;;;;12.13;1.83;;;;;;;20.47;57.98;99222.66;7311401;19;129047;-35
2021/12/30 08:58:48;;;;;;;19.77;3.38;;;;;;;20.61;58.23;99235.25;7309763;19;131125;-36
2021/12/30 09:01:14;;;;;;;17.50;2.53;;;;;;;20.64;58.24;99235.00;7310635;19;158602;-35
2021/12/30 09:03:39;;;;;;;17.25;2.40;;;;;;;20.69;57.92;99235.41;7309633;19;131372;-32
2021/12/30 09:06:05;;;;;;;20.50;2.58;;;;;;;20.72;57.42;99235.09;7310356;19;129019;-34
2021/12/30 09:08:31;;;;;;;13.60;2.15;;;;;;;20.71;57.23;99225.59;7309644;19;129681;-37
2021/12/30 09:10:56;;;;;;;14.85;2.20;;;;;;;20.67;57.63;99219.03;7311580;19;129275;-36
2021/12/30 09:13:21;;;;;;;13.52;1.85;;;;;;;20.72;57.46;99222.84;7310905;19;131346;-32
2021/12/30 09:15:47;;;;;;;28.65;4.07;;;;;;;20.75;57.45;99221.75;7309525;19;139871;-35
2021/12/30 09:18:14;;;;;;;19.85;2.78;;;;;;;20.80;57.32;99216.09;7309953;19;129089;-38
2021/12/30 09:20:42;;;;;;;12.73;2.15;;;;;;;20.79;57.38;99217.91;7311149;19;131999;-36
2021/12/30 09:23:09;;;;;;;21.60;3.30;;;;;;;20.80;57.35;99232.59;7309188;19;130883;-35
2021/12/30 09:25:37;;;;;;;18.27;2.95;;;;;;;20.76;57.63;99239.06;7308792;19;129477;-34
2021/12/30 09:28:03;;;;;;;21.92;3.13;;;;;;;20.81;57.45;99242.06;7309209;19;129112;-35
2021/12/30 09:30:28;;;;;;;15.45;2.28;;;;;;;20.80;57.37;99243.06;7306659;19;130998;-34
2021/12/30 09:32:55;;;;;;;13.38;1.92;;;;;;;20.82;57.73;99238.50;7309112;19;129818;-35
2021/12/30 09:35:22;;;;;;;12.55;2.10;;;;;;;20.83;57.33;99244.53;7308774;19;129340;-34
2021/12/30 09:37:48;;;;;;;11.30;2.27;;;;;;;20.81;57.51;99243.88;7309229;19;130266;-36
2021/12/30 09:40:15;;;;;;;18.00;3.03;;;;;;;20.84;57.16;99251.44;7310297;19;129843;-33
2021/12/30 09:42:49;;;;;;;12.65;2.08;;;;;;;20.82;57.47;99254.19;7309652;19;129265;-36
2021/12/30 09:45:15;;;;;;;19.55;2.80;;;;;;;20.83;57.31;99245.38;7309408;19;129079;-35
2021/12/30 09:47:53;;;;;;;11.73;1.58;;;;;;;20.83;57.10;99245.38;7309028;19;130459;-35
2021/12/30 09:50:19;;;;;;;;;;;;;;;20.73;57.52;99228.91;7309670;19;132111;-36
2021/12/30 09:52:45;;;;;;;13.02;2.13;;;;;;;20.84;56.82;99233.94;7310068;19;129240;-34
2021/12/30 09:55:10;;;;;;;13.88;2.05;;;;;;;20.83;56.81;99228.84;7309607;19;130072;-38
2021/12/30 09:57:37;;;;;;;15.27;2.25;;;;;;;20.77;57.08;99209.38;7309767;19;130080;-33
2021/12/30 10:00:07;;;;;;;;;;;;;;;20.74;57.34;99204.44;7308299;19;129365;-35
2021/12/30 10:02:33;;;;;;;15.75;2.38;;;;;;;20.84;57.18;99220.88;7309840;19;132171;-33
2021/12/30 10:05:08;;;;;;;22.20;2.88;;;;;;;20.83;57.00;99219.25;7304021;19;153583;-39
2021/12/30 10:07:34;;;;;;;25.90;3.78;;;;;;;20.86;56.84;99218.94;7307169;19;129164;-34
2021/12/30 10:10:02;;;;;;;19.52;2.50;;;;;;;20.83;57.03;99214.00;7309522;19;129370;-32
2021/12/30 10:12:39;;;;;;;16.80;2.38;;;;;;;20.85;57.54;99209.47;7308812;19;130641;-33
2021/12/30 10:15:06;;;;;;;22.30;3.15;;;;;;;20.81;57.22;99210.72;7309901;19;129099;-33
2021/12/30 10:17:32;;;;;;;17.15;2.65;;;;;;;20.80;57.80;99209.09;7308649;19;129695;-39
2021/12/30 10:20:14;;;;;;;12.95;2.00;;;;;;;20.81;57.59;99205.50;7310500;19;130331;-38
2021/12/30 10:22:40;;;;;;;17.63;2.55;;;;;;;20.83;57.16;99208.78;7306746;19;130921;-36
2021/12/30 10:25:23;;;;;;;16.73;2.58;;;;;;;20.80;57.17;99197.81;7307608;19;154487;-35
2021/12/30 10:27:49;;;;;;;19.50;3.10;;;;;;;20.81;57.79;99199.47;7306554;19;129729;-35
2021/12/30 10:30:30;;;;;;;19.20;3.10;;;;;;;20.77;57.41;99203.31;7307223;19;132661;-38
2021/12/30 10:33:12;;;;;;;16.90;2.53;;;;;;;20.74;57.78;99207.06;7305582;19;129770;-33
2021/12/30 10:35:38;;;;;;;15.43;2.50;;;;;;;20.71;57.96;99202.94;7306812;19;129229;-36
2021/12/30 10:38:08;;;;;;;18.92;3.08;;;;;;;20.74;57.65;99204.44;7307155;19;129745;-37
2021/12/30 10:40:35;;;;;;;15.98;2.33;;;;;;;20.77;57.84;99198.94;7310694;19;130369;-38
2021/12/30 10:43:27;;;;;;;15.10;2.25;;;;;;;20.73;57.94;99198.38;7315765;19;131452;-36
2021/12/30 10:46:10;;;;;;;11.27;1.75;;;;;;;20.76;57.68;99192.03;7316181;19;129192;-37
2021/12/30 10:49:06;;;;;;;20.45;3.42;;;;;;;20.70;58.00;99192.63;7314659;19;130521;-39
2021/12/30 10:51:36;;;;;;;13.45;1.85;;;;;;;20.68;57.32;99198.00;7315930;19;129544;-34
2021/12/30 10:54:14;;;;;;;29.88;4.68;;;;;;;20.77;58.02;99199.72;7313314;19;129211;-38
2021/12/30 10:56:46;;;;;;;19.27;3.10;;;;;;;20.75;57.75;99195.63;7310366;19;128880;-37
2021/12/30 10:59:31;;;;;;;20.45;2.95;;;;;;;20.75;57.70;99195.63;7309469;19;129300;-40
2021/12/30 11:02:08;;;;;;;10.52;1.73;;;;;;;20.71;57.96;99191.66;7313130;19;130327;-39
2021/12/30 11:04:40;;;;;;;14.45;2.22;;;;;;;20.66;57.50;99183.41;7312795;19;130273;-39
2021/12/30 11:07:08;;;;;;;15.18;2.47;;;;;;;20.72;57.71;99196.72;7315114;19;129863;-35
2021/12/30 11:09:33;;;;;;;12.65;1.70;;;;;;;20.72;57.79;99195.91;7313158;19;129285;-37
2021/12/30 11:12:02;;;;;;;13.18;1.90;;;;;;;20.63;57.44;99183.72;7314782;19;129761;-37
2021/12/30 11:14:31;;;;;;;11.63;1.75;;;;;;;20.70;57.90;99203.91;7314283;19;132517;-37
2021/12/30 11:16:59;;;;;;;12.93;1.90;;;;;;;20.69;57.87;99201.44;7314583;19;129243;-38